Time;durP1;ratioP1;P1;durP2;ratioP2;P2;SDS_P1;SDS_P2;PMS_P1;PMS_P2;Temp;Humidity;BMP_temperature;BMP_pressure;BME280_temperature;BME280_humidity;BME280_pressure;Samples;Min_cycle;Max_cycle;Signal;HPM_P1;HPM_P2
2022/07/24 00:01:36;;;;;;;;;15.67;14.67;;;;;22.50;53.98;101774.59;5080964;27;45370;-68
2022/07/24 00:04:03;;;;;;;;;15.00;13.33;;;;;22.46;54.01;101784.00;5081115;27;56490;-68
2022/07/24 00:06:28;;;;;;;;;11.67;11.67;;;;;22.46;54.31;101789.41;5081456;27;45296;-68
2022/07/24 00:08:54;;;;;;;;;15.33;13.33;;;;;22.45;53.67;101794.00;5081069;27;71853;-67
2022/07/24 00:11:19;;;;;;;;;14.00;11.67;;;;;22.44;54.26;101794.97;5081781;27;45436;-68
2022/07/24 00:13:44;;;;;;;;;13.67;13.33;;;;;22.44;53.91;101794.13;5082119;27;45437;-68
2022/07/24 00:16:10;;;;;;;;;15.00;14.33;;;;;22.41;53.79;101787.13;5080859;27;64156;-68
2022/07/24 00:18:35;;;;;;;;;13.67;13.67;;;;;22.39;53.89;101794.50;5080060;27;45507;-68
2022/07/24 00:21:01;;;;;;;;;15.33;11.33;;;;;22.39;54.02;101793.66;5080325;27;45342;-68
2022/07/24 00:23:26;;;;;;;;;17.00;16.00;;;;;22.38;53.89;101787.34;5081888;27;45369;-68
2022/07/24 00:25:53;;;;;;;;;13.67;13.00;;;;;22.37;54.18;101782.97;5081731;27;45444;-68
2022/07/24 00:28:18;;;;;;;;;16.00;13.00;;;;;22.35;54.12;101776.75;5081620;27;46040;-68
2022/07/24 00:30:44;;;;;;;;;9.00;9.00;;;;;22.35;54.08;101770.50;5080608;27;45323;-68
2022/07/24 00:33:09;;;;;;;;;12.67;12.67;;;;;22.34;54.10;101764.19;5080318;27;63461;-68
2022/07/24 00:35:35;;;;;;;;;13.67;12.00;;;;;22.31;54.01;101750.91;5080498;27;62201;-68
2022/07/24 00:38:00;;;;;;;;;15.33;12.33;;;;;22.29;54.19;101747.47;5081152;27;46101;-68
2022/07/24 00:40:25;;;;;;;;;16.00;14.00;;;;;22.27;54.38;101753.03;5080145;27;69414;-67
2022/07/24 00:42:51;;;;;;;;;15.67;14.33;;;;;22.26;54.20;101745.88;5080847;27;55930;-67
2022/07/24 00:45:17;;;;;;;;;14.33;14.33;;;;;22.24;54.19;101741.56;5081014;27;46994;-68
2022/07/24 00:47:42;;;;;;;;;14.33;13.33;;;;;22.20;54.28;101746.44;5080785;28;45500;-67
2022/07/24 00:50:08;;;;;;;;;11.67;11.33;;;;;22.16;54.03;101750.34;5079673;27;69101;-68
2022/07/24 00:52:34;;;;;;;;;15.00;14.00;;;;;22.14;54.66;101750.50;5079913;28;45369;-68
2022/07/24 00:54:59;;;;;;;;;16.67;14.33;;;;;22.09;54.00;101741.88;5080721;28;52713;-68
2022/07/24 00:57:25;;;;;;;;;12.33;12.33;;;;;22.06;53.90;101734.03;5080893;27;47111;-68
2022/07/24 00:59:51;;;;;;;;;12.33;12.33;;;;;22.00;54.55;101733.69;5081197;27;45480;-68
2022/07/24 01:02:16;;;;;;;;;8.67;8.00;;;;;21.93;54.25;101731.50;5080621;27;45519;-69
2022/07/24 01:04:42;;;;;;;;;15.00;13.33;;;;;21.89;54.40;101734.56;5080657;27;45491;-68
2022/07/24 01:07:08;;;;;;;;;15.00;12.00;;;;;21.84;54.63;101731.38;5079496;27;69318;-68
2022/07/24 01:09:34;;;;;;;;;13.00;13.00;;;;;21.79;54.92;101727.22;5080963;27;45434;-68
2022/07/24 01:11:59;;;;;;;;;12.00;12.00;;;;;21.77;54.91;101731.94;5079482;27;45581;-68
2022/07/24 01:14:25;;;;;;;;;14.33;13.67;;;;;21.76;54.67;101741.03;5080304;27;64852;-67
2022/07/24 01:16:50;;;;;;;;;10.00;10.00;;;;;21.74;55.21;101740.28;5080568;27;46300;-68
2022/07/24 01:19:16;;;;;;;;;16.33;15.33;;;;;21.76;55.15;101746.44;5080626;28;45610;-68
2022/07/24 01:21:47;;;;;;;;;13.67;11.00;;;;;21.77;55.08;101747.28;5080557;28;45480;-68
2022/07/24 01:24:12;;;;;;;;;18.00;14.00;;;;;21.77;54.89;101742.75;5080575;27;45330;-68
2022/07/24 01:26:37;;;;;;;;;13.00;13.00;;;;;21.76;55.46;101741.03;5077243;27;67307;-68
2022/07/24 01:29:03;;;;;;;;;3.00;1.00;;;;;21.73;55.21;101741.28;5079442;27;70494;-68
2022/07/24 01:31:28;;;;;;;;;11.33;11.00;;;;;21.72;55.42;101741.41;5079921;27;45383;-68
2022/07/24 01:33:54;;;;;;;;;14.67;14.00;;;;;21.73;55.08;101744.00;5079665;27;67891;-68
2022/07/24 01:36:19;;;;;;;;;14.00;12.33;;;;;21.72;55.38;101741.41;5079224;27;65790;-68
2022/07/24 01:38:44;;;;;;;;;13.00;12.00;;;;;21.69;55.30;101733.53;5080097;27;45320;-67
2022/07/24 01:41:10;;;;;;;;;13.00;10.67;;;;;21.69;55.29;101733.53;5078785;28;62475;-68
2022/07/24 01:43:35;;;;;;;;;15.00;13.00;;;;;21.71;55.49;101734.28;5079903;27;62127;-68
2022/07/24 01:46:01;;;;;;;;;13.00;11.00;;;;;21.71;55.45;101735.13;5079247;28;70804;-68
2022/07/24 01:48:26;;;;;;;;;14.00;12.67;;;;;21.71;56.00;101728.88;5080410;27;45828;-68
2022/07/24 01:50:51;;;;;;;;;15.00;14.67;;;;;21.69;55.33;101737.09;5079466;27;65353;-68
2022/07/24 01:53:17;;;;;;;;;12.00;12.00;;;;;21.70;55.72;101728.00;5080016;27;45380;-68
2022/07/24 01:55:42;;;;;;;;;15.33;13.00;;;;;21.69;55.29;101728.13;5080223;27;45434;-68
2022/07/24 01:58:08;;;;;;;;;7.00;7.00;;;;;21.68;55.38;101729.09;5079738;27;50463;-68
2022/07/24 02:00:33;;;;;;;;;13.67;12.33;;;;;21.63;56.18;101724.94;5070907;27;60805;-68
2022/07/24 02:02:58;;;;;;;;;12.00;11.33;;;;;21.61;56.10;101726.06;5079837;27;45469;-68
2022/07/24 02:05:24;;;;;;;;;16.67;13.00;;;;;21.60;56.32;101722.50;5080492;28;46920;-68
2022/07/24 02:07:56;;;;;;;;;12.33;12.33;;;;;21.58;55.68;101724.47;5078769;27;69005;-68
2022/07/24 02:10:21;;;;;;;;;14.00;13.00;;;;;21.58;55.66;101729.03;5080161;27;45530;-68
2022/07/24 02:12:46;;;;;;;;;13.67;12.00;;;;;21.57;56.24;101716.47;5079527;27;47113;-68
2022/07/24 02:15:12;;;;;;;;;14.00;14.00;;;;;21.58;55.65;101719.03;5078808;27;69770;-68
2022/07/24 02:17:37;;;;;;;;;15.00;13.00;;;;;21.58;55.98;101708.22;5079283;27;62906;-68
2022/07/24 02:20:04;;;;;;;;;14.33;13.67;;;;;21.58;56.37;101705.50;5079946;27;45283;-68
2022/07/24 02:22:29;;;;;;;;;13.33;13.33;;;;;21.57;55.74;101711.06;5072611;27;45380;-68
2022/07/24 02:24:54;;;;;;;;;12.33;12.33;;;;;21.58;56.19;101705.50;5079186;27;47097;-68
2022/07/24 02:27:20;;;;;;;;;17.00;16.00;;;;;21.54;55.88;101697.75;5078691;27;67968;-67
2022/07/24 02:29:45;;;;;;;;;18.33;17.00;;;;;21.53;56.23;101698.75;5078627;27;63439;-67
2022/07/24 02:32:11;;;;;;;;;13.67;12.67;;;;;21.51;55.98;101701.56;5078261;27;66473;-67
2022/07/24 02:34:36;;;;;;;;;15.00;15.00;;;;;21.49;56.34;101707.09;5079236;27;46349;-67
2022/07/24 02:37:02;;;;;;;;;16.67;14.00;;;;;21.49;56.66;101704.38;5079647;27;45260;-67
2022/07/24 02:39:27;;;;;;;;;18.33;16.00;;;;;21.47;56.12;101700.09;5078174;28;45408;-66
2022/07/24 02:41:52;;;;;;;;;20.00;17.00;;;;;21.47;56.44;101697.38;5078592;27;63105;-67
2022/07/24 02:44:17;;;;;;;;;13.00;12.00;;;;;21.46;56.20;101692.97;5081921;27;67453;-66
2022/07/24 02:46:43;;;;;;;;;18.67;16.67;;;;;21.44;56.42;101692.22;5082615;27;58079;-67
2022/07/24 02:49:08;;;;;;;;;18.33;16.67;;;;;21.42;56.91;101691.47;5081501;28;54557;-66
2022/07/24 02:51:33;;;;;;;;;13.67;13.67;;;;;21.41;56.57;101684.38;5081664;27;65762;-67
2022/07/24 02:53:59;;;;;;;;;14.00;14.00;;;;;21.40;56.87;101677.25;5082074;27;70972;-67
2022/07/24 02:56:24;;;;;;;;;15.00;14.33;;;;;21.41;56.62;101681.66;5081946;27;63283;-67
2022/07/24 02:58:49;;;;;;;;;16.00;12.33;;;;;21.39;56.73;101676.34;5082134;27;64674;-67
2022/07/24 03:01:15;;;;;;;;;17.33;14.67;;;;;21.38;56.06;101671.97;5082221;27;45355;-67
2022/07/24 03:03:40;;;;;;;;;18.33;17.00;;;;;21.37;56.62;101672.06;5082965;27;46931;-67
2022/07/24 03:06:05;;;;;;;;;18.33;16.67;;;;;21.35;56.83;101665.94;5082146;27;64294;-67
2022/07/24 03:08:31;;;;;;;;;20.67;16.00;;;;;21.33;56.96;101671.47;5081963;27;62291;-67
2022/07/24 03:10:56;;;;;;;;;14.67;14.67;;;;;21.32;56.44;101667.03;5082101;27;55326;-67
2022/07/24 03:13:21;;;;;;;;;13.33;13.33;;;;;21.31;56.72;101668.03;5081518;27;68906;-67
2022/07/24 03:15:47;;;;;;;;;13.33;13.33;;;;;21.30;56.48;101667.19;5081832;27;55617;-66
2022/07/24 03:18:12;;;;;;;;;15.33;15.33;;;;;21.30;56.60;101669.88;5082740;27;45373;-66
2022/07/24 03:20:37;;;;;;;;;15.33;13.67;;;;;21.29;56.91;101673.56;5082042;27;65077;-66
2022/07/24 03:23:03;;;;;;;;;15.00;14.33;;;;;21.28;56.53;101671.84;5082147;27;46223;-66
2022/07/24 03:25:28;;;;;;;;;14.00;14.00;;;;;21.28;56.60;101669.13;5081697;27;65359;-66
2022/07/24 03:27:53;;;;;;;;;13.33;13.33;;;;;21.28;57.15;101665.59;5081662;27;61471;-66
2022/07/24 03:30:19;;;;;;;;;16.33;14.67;;;;;21.27;56.75;101666.56;5082140;27;45378;-66
2022/07/24 03:32:45;;;;;;;;;13.00;13.00;;;;;21.26;56.97;101675.66;5081905;27;46924;-66
2022/07/24 03:35:10;;;;;;;;;14.67;13.33;;;;;21.23;57.39;101670.50;5082284;27;46800;-66
2022/07/24 03:37:36;;;;;;;;;15.00;14.67;;;;;21.20;56.91;101665.31;5082328;27;45417;-67
2022/07/24 03:40:02;;;;;;;;;15.00;13.33;;;;;21.17;57.30;101666.44;5081495;28;65819;-67
2022/07/24 03:42:28;;;;;;;;;14.00;13.67;;;;;21.17;57.02;101662.88;5081710;27;46276;-67
2022/07/24 03:44:53;;;;;;;;;15.67;14.67;;;;;21.15;56.77;101668.44;5081365;27;64386;-67
2022/07/24 03:47:18;;;;;;;;;13.00;12.00;;;;;21.15;57.21;101663.00;5081558;28;62937;-67
2022/07/24 03:49:44;;;;;;;;;15.00;13.67;;;;;21.13;57.01;101660.44;5082069;28;45311;-67
2022/07/24 03:52:09;;;;;;;;;15.67;14.67;;;;;21.11;56.87;101662.41;5081159;27;69646;-67
2022/07/24 03:54:35;;;;;;;;;12.67;11.67;;;;;21.11;57.39;101665.09;5081276;27;66541;-67
2022/07/24 03:57:00;;;;;;;;;14.67;14.33;;;;;21.09;57.26;101663.50;5081481;27;64324;-67
2022/07/24 03:59:25;;;;;;;;;13.00;11.00;;;;;21.07;57.13;101666.34;5080832;27;62604;-67
2022/07/24 04:01:50;;;;;;;;;15.00;13.00;;;;;21.06;57.52;101661.91;5079863;27;66381;-67
2022/07/24 04:04:16;;;;;;;;;13.67;13.67;;;;;21.07;57.36;101673.59;5079976;28;68973;-66
2022/07/24 04:06:41;;;;;;;;;18.67;15.67;;;;;21.08;57.45;101667.19;5080768;27;59706;-67
2022/07/24 04:09:07;;;;;;;;;15.67;15.67;;;;;21.07;57.24;101676.31;5079939;27;55478;-67
2022/07/24 04:11:32;;;;;;;;;10.67;10.67;;;;;21.07;57.33;101677.16;5080621;28;45377;-68
2022/07/24 04:13:58;;;;;;;;;18.00;17.00;;;;;21.07;57.28;101673.59;5081278;27;45493;-67
2022/07/24 04:16:23;;;;;;;;;17.67;14.00;;;;;21.07;57.60;101677.16;5081593;27;45203;-67
2022/07/24 04:18:49;;;;;;;;;14.33;14.33;;;;;21.06;57.73;101675.44;5081917;28;45604;-67
2022/07/24 04:21:14;;;;;;;;;16.67;16.33;;;;;21.06;57.50;101683.53;5080762;27;46076;-66
2022/07/24 04:23:40;;;;;;;;;20.67;17.33;;;;;21.06;57.66;101680.00;5081906;27;45373;-66
2022/07/24 04:26:06;;;;;;;;;16.33;14.67;;;;;21.03;57.64;101670.28;5078409;28;63606;-66
2022/07/24 04:28:31;;;;;;;;;15.00;14.67;;;;;21.03;57.69;101666.69;5079750;28;45235;-66
2022/07/24 04:30:57;;;;;;;;;19.00;15.67;;;;;21.01;58.02;101676.81;5080662;27;45818;-66
2022/07/24 04:33:22;;;;;;;;;17.33;17.33;;;;;20.99;58.38;101672.38;5081402;27;45440;-66
2022/07/24 04:35:47;;;;;;;;;20.00;17.00;;;;;21.01;58.28;101672.25;5080242;27;66809;-66
2022/07/24 04:38:13;;;;;;;;;21.00;18.67;;;;;21.04;57.85;101671.13;5081374;27;45524;-66
2022/07/24 04:40:38;;;;;;;;;16.67;15.67;;;;;21.04;58.10;101665.72;5079806;27;71446;-66
2022/07/24 04:43:04;;;;;;;;;17.33;16.33;;;;;21.03;58.59;101670.28;5080873;27;45362;-66
2022/07/24 04:45:30;;;;;;;;;17.00;15.00;;;;;21.02;58.07;101668.56;5080520;27;57562;-66
2022/07/24 04:47:55;;;;;;;;;18.67;17.67;;;;;21.02;58.47;101668.56;5081236;27;45456;-66
2022/07/24 04:50:21;;;;;;;;;18.00;18.00;;;;;21.05;58.54;101665.59;5080626;27;54569;-67
2022/07/24 04:52:46;;;;;;;;;18.67;18.67;;;;;21.07;58.46;101670.91;5080159;27;70436;-67
2022/07/24 04:55:12;;;;;;;;;19.33;16.33;;;;;21.09;58.51;101661.69;5081324;27;45283;-67
2022/07/24 04:57:38;;;;;;;;;21.67;19.67;;;;;21.12;58.02;101668.69;5081380;27;45450;-67
2022/07/24 05:00:06;;;;;;;;;20.00;19.33;;;;;21.13;58.24;101663.16;5080062;27;45362;-67
2022/07/24 05:02:31;;;;;;;;;21.67;20.00;;;;;21.15;57.90;101671.97;5080223;27;45470;-66
2022/07/24 05:04:57;;;;;;;;;19.00;17.00;;;;;21.17;57.72;101666.44;5079985;27;64191;-67
2022/07/24 05:07:22;;;;;;;;;19.67;19.00;;;;;21.19;58.02;101663.63;5080908;27;45620;-67
2022/07/24 05:09:47;;;;;;;;;25.00;22.33;;;;;21.21;58.37;101662.53;5079767;27;71181;-67
2022/07/24 05:12:13;;;;;;;;;19.67;19.67;;;;;21.24;57.69;101662.25;5080223;27;61258;-67
2022/07/24 05:14:38;;;;;;;;;18.67;18.67;;;;;21.26;57.99;101667.53;5079734;27;64375;-67
2022/07/24 05:17:03;;;;;;;;;20.67;19.00;;;;;21.28;58.04;101669.13;5080008;27;58183;-67
2022/07/24 05:19:29;;;;;;;;;18.33;18.00;;;;;21.32;57.50;101667.03;5079473;27;71616;-66
2022/07/24 05:21:54;;;;;;;;;14.67;14.67;;;;;21.35;58.07;101679.47;5079824;27;65805;-66
2022/07/24 05:24:19;;;;;;;;;16.00;16.00;;;;;21.35;58.07;101672.19;5080242;27;59846;-66
2022/07/24 05:26:45;;;;;;;;;20.00;18.67;;;;;21.38;58.23;101671.06;5080219;27;45409;-67
2022/07/24 05:29:10;;;;;;;;;15.00;15.00;;;;;21.39;58.08;101670.94;5080492;27;46101;-67
2022/07/24 05:31:35;;;;;;;;;19.33;18.00;;;;;21.44;57.74;101667.88;5078921;27;66686;-67
2022/07/24 05:34:04;;;;;;;;;16.00;16.00;;;;;21.54;57.56;101658.03;5080441;27;53224;-67
2022/07/24 05:36:29;;;;;;;;;22.00;17.00;;;;;21.85;57.06;101658.19;5080945;27;45449;-68
2022/07/24 05:38:55;;;;;;;;;17.33;16.00;;;;;22.12;56.50;101667.63;5080204;27;46061;-67
2022/07/24 05:41:21;;;;;;;;;20.00;17.33;;;;;22.22;56.30;101670.44;5080173;27;45810;-67
2022/07/24 05:43:46;;;;;;;;;15.00;14.00;;;;;22.26;56.28;101667.31;5062326;28;45479;-67
2022/07/24 05:46:13;;;;;;;;;15.67;15.67;;;;;22.23;56.00;101659.44;5062256;28;45443;-67
2022/07/24 05:48:39;;;;;;;;;15.00;14.00;;;;;22.23;56.15;101666.72;5079501;27;47007;-68
2022/07/24 05:51:04;;;;;;;;;16.67;16.67;;;;;22.21;56.31;101663.28;5078972;28;45464;-67
2022/07/24 05:53:29;;;;;;;;;12.00;12.00;;;;;22.20;56.16;101665.16;5072939;27;48411;-66
2022/07/24 05:55:55;;;;;;;;;14.67;13.33;;;;;22.22;56.20;101665.00;5077344;27;47211;-66
2022/07/24 05:58:20;;;;;;;;;14.33;13.67;;;;;22.24;55.63;101663.88;5077917;27;71408;-66
2022/07/24 06:00:46;;;;;;;;;19.00;14.67;;;;;22.26;55.47;101661.88;5076665;27;62766;-66
2022/07/24 06:03:11;;;;;;;;;16.00;16.00;;;;;22.29;55.72;101664.34;5077506;27;45340;-68
2022/07/24 06:05:37;;;;;;;;;17.67;15.00;;;;;22.34;55.58;101655.81;5080272;27;45561;-66
2022/07/24 06:08:02;;;;;;;;;13.33;11.67;;;;;22.39;55.10;101658.16;5079412;27;55517;-66
2022/07/24 06:10:28;;;;;;;;;18.67;16.67;;;;;22.45;54.87;101654.91;5079800;27;45354;-66
2022/07/24 06:12:54;;;;;;;;;15.00;12.33;;;;;22.50;54.72;101651.78;5079793;27;45271;-66
2022/07/24 06:15:19;;;;;;;;;15.00;14.00;;;;;22.55;54.45;101649.53;5079889;27;45225;-66
2022/07/24 06:17:45;;;;;;;;;13.67;13.33;;;;;22.61;54.16;101649.00;5080342;28;46126;-66
2022/07/24 06:20:12;;;;;;;;;13.33;12.00;;;;;22.67;53.87;101648.47;5083626;27;45310;-67
2022/07/24 06:22:39;;;;;;;;;13.67;13.33;;;;;22.72;54.10;101648.94;5083610;27;45485;-67
2022/07/24 06:25:05;;;;;;;;;12.33;11.33;;;;;22.75;53.47;101643.22;5083336;27;45531;-65
2022/07/24 06:27:30;;;;;;;;;12.67;11.67;;;;;22.80;53.75;101646.38;5082847;27;45681;-67
2022/07/24 06:29:55;;;;;;;;;13.33;12.33;;;;;22.87;53.53;101649.41;5080948;28;54386;-67
2022/07/24 06:32:21;;;;;;;;;13.00;13.00;;;;;22.97;53.35;101641.28;5083289;27;45580;-67
2022/07/24 06:34:46;;;;;;;;;12.67;12.67;;;;;23.07;53.24;101638.63;5083440;27;45334;-67
2022/07/24 06:37:11;;;;;;;;;14.00;14.00;;;;;23.16;53.00;101650.53;5082105;27;70370;-67
2022/07/24 06:39:37;;;;;;;;;14.67;14.67;;;;;23.25;52.70;101638.84;5082093;27;68047;-67
2022/07/24 06:42:02;;;;;;;;;16.00;14.00;;;;;23.35;52.54;101637.00;5082489;27;65766;-67
2022/07/24 06:44:28;;;;;;;;;13.00;10.67;;;;;23.45;52.37;101635.16;5083035;27;45514;-67
2022/07/24 06:46:53;;;;;;;;;16.67;15.67;;;;;23.54;51.95;101638.00;5081234;28;45910;-67
2022/07/24 06:49:18;;;;;;;;;10.67;10.00;;;;;23.62;52.17;101633.59;5081982;27;64383;-67
2022/07/24 06:51:44;;;;;;;;;16.00;15.00;;;;;23.73;51.57;101629.88;5082758;27;45325;-68
2022/07/24 06:54:09;;;;;;;;;14.67;13.67;;;;;23.87;51.75;101634.03;5082315;27;64416;-67
2022/07/24 06:56:35;;;;;;;;;10.33;10.33;;;;;24.03;51.61;101635.34;5081836;27;72860;-68
2022/07/24 06:59:01;;;;;;;;;14.67;13.67;;;;;24.17;51.08;101634.88;5081876;27;45358;-68
2022/07/24 07:01:26;;;;;;;;;14.33;14.33;;;;;24.34;50.81;101632.38;5081793;27;57641;-68
2022/07/24 07:03:55;;;;;;;;;14.00;13.33;;;;;24.52;49.17;101635.19;5082970;27;45627;-69
2022/07/24 07:06:21;;;;;;;;;14.67;14.67;;;;;24.68;49.99;101635.47;5082134;27;61244;-68
2022/07/24 07:08:46;;;;;;;;;14.67;14.67;;;;;24.86;49.91;101637.38;5082599;27;45388;-68
2022/07/24 07:11:11;;;;;;;;;12.33;12.33;;;;;25.02;49.42;101636.75;5081947;27;60908;-68
2022/07/24 07:13:37;;;;;;;;;17.00;17.00;;;;;25.20;49.49;101639.47;5081372;27;62355;-69
2022/07/24 07:16:02;;;;;;;;;16.00;16.00;;;;;25.40;48.50;101641.09;5081559;27;66566;-68
2022/07/24 07:18:28;;;;;;;;;13.67;13.67;;;;;25.63;48.37;101646.13;5082930;27;45291;-68
2022/07/24 07:20:53;;;;;;;;;20.67;17.00;;;;;25.92;48.01;101636.84;5081474;27;65032;-69
2022/07/24 07:23:23;;;;;;;;;12.00;12.00;;;;;26.24;46.56;101632.66;5080868;27;45516;-68
2022/07/24 07:25:49;;;;;;;;;11.67;10.67;;;;;26.51;46.66;101630.78;5082439;27;46056;-69
2022/07/24 07:28:14;;;;;;;;;11.67;11.67;;;;;26.81;46.89;101632.16;5081912;27;45558;-69
2022/07/24 07:30:39;;;;;;;;;13.67;13.33;;;;;27.04;45.25;101637.03;5069211;28;45465;-69
2022/07/24 07:33:05;;;;;;;;;11.67;10.33;;;;;27.36;44.62;101635.41;5081717;27;50412;-69
2022/07/24 07:35:30;;;;;;;;;13.00;12.67;;;;;27.70;45.55;101618.94;5082369;27;49525;-70
2022/07/24 07:37:55;;;;;;;;;13.33;13.33;;;;;27.97;45.12;101626.94;5081345;27;65512;-70
2022/07/24 07:40:21;;;;;;;;;12.00;12.00;;;;;28.22;42.92;101625.94;5082344;27;45423;-70
2022/07/24 07:42:46;;;;;;;;;12.33;12.33;;;;;28.57;42.73;101625.66;5081880;27;48157;-71
2022/07/24 07:45:11;;;;;;;;;13.33;13.33;;;;;28.92;42.02;101626.25;5082502;28;45388;-70
2022/07/24 07:47:37;;;;;;;;;20.00;17.00;;;;;29.32;41.04;101623.47;5081114;27;63644;-70
2022/07/24 07:50:03;;;;;;;;;15.00;15.00;;;;;29.90;41.09;101618.44;5081874;27;45440;-71
2022/07/24 07:52:29;;;;;;;;;12.00;12.00;;;;;30.34;37.98;101623.13;5081782;27;45443;-70
2022/07/24 07:54:54;;;;;;;;;12.00;12.00;;;;;30.81;39.40;101612.84;5080720;28;46029;-70
2022/07/24 07:57:19;;;;;;;;;14.00;14.00;;;;;31.28;39.28;101618.06;5082001;27;49177;-70
2022/07/24 07:59:45;;;;;;;;;12.33;12.33;;;;;31.84;37.00;101612.69;5080076;28;52029;-71
2022/07/24 08:02:10;;;;;;;;;15.00;13.33;;;;;32.54;36.21;101611.94;5080683;27;61591;-70
2022/07/24 08:04:35;;;;;;;;;15.33;14.00;;;;;33.27;37.04;101616.09;5080728;27;69351;-70
2022/07/24 08:07:01;;;;;;;;;13.00;11.33;;;;;33.64;35.31;101613.81;5081780;27;45208;-71
2022/07/24 08:09:26;;;;;;;;;17.67;15.00;;;;;34.10;34.07;101601.94;5080521;28;45221;-70
2022/07/24 08:11:52;;;;;;;;;15.67;14.33;;;;;34.76;33.82;101602.00;5080653;27;63314;-70
2022/07/24 08:14:17;;;;;;;;;11.67;11.67;;;;;35.30;33.10;101605.34;5080445;27;69529;-70
2022/07/24 08:16:42;;;;;;;;;16.33;15.00;;;;;35.83;31.87;101606.88;5080559;27;46931;-69
2022/07/24 08:19:08;;;;;;;;;14.67;12.00;;;;;36.36;30.96;101605.56;5081531;27;45411;-70
2022/07/24 08:21:33;;;;;;;;;15.00;15.00;;;;;36.93;27.89;101598.91;5081094;27;59816;-71
2022/07/24 08:23:59;;;;;;;;;13.67;13.67;;;;;37.40;29.72;101609.34;5080212;27;71383;-70
2022/07/24 08:26:24;;;;;;;;;11.00;11.00;;;;;37.64;28.79;101603.84;5080183;28;45296;-70
2022/07/24 08:28:49;;;;;;;;;13.33;12.33;;;;;37.80;26.75;101613.44;5081343;27;45910;-71
2022/07/24 08:31:15;;;;;;;;;11.00;11.00;;;;;38.17;25.99;101610.41;5079789;27;57211;-70
2022/07/24 08:33:40;;;;;;;;;13.33;12.33;;;;;38.71;25.42;101602.72;5079771;27;64058;-71
2022/07/24 08:36:06;;;;;;;;;12.33;12.33;;;;;39.04;24.89;101603.94;5080743;27;52554;-71
2022/07/24 08:38:31;;;;;;;;;10.67;10.67;;;;;39.26;26.25;101599.66;5081611;27;45456;-71
2022/07/24 08:40:56;;;;;;;;;14.00;14.00;;;;;39.54;26.81;101605.16;5079021;27;59295;-71
2022/07/24 08:43:22;;;;;;;;;12.33;11.33;;;;;39.90;24.97;101601.28;5080980;27;45942;-71
2022/07/24 08:45:49;;;;;;;;;11.33;10.00;;;;;40.11;25.15;101594.09;5080804;27;45369;-71
2022/07/24 08:48:16;;;;;;;;;12.67;11.67;;;;;40.29;23.85;101593.81;5093458;27;45469;-71
2022/07/24 08:50:42;;;;;;;;;15.00;13.67;;;;;40.38;24.11;101587.75;5080215;28;67419;-70
2022/07/24 08:53:07;;;;;;;;;10.67;10.67;;;;;40.51;22.85;101585.44;5080884;28;45302;-70
2022/07/24 08:55:33;;;;;;;;;11.00;9.33;;;;;40.75;24.09;101584.34;5080246;27;45433;-70
2022/07/24 08:58:00;;;;;;;;;9.33;9.33;;;;;40.92;22.03;101581.47;5080871;27;45600;-70
2022/07/24 09:00:26;;;;;;;;;5.00;5.00;;;;;41.16;21.70;101577.28;5081365;27;45430;-71
2022/07/24 09:02:52;;;;;;;;;11.00;10.67;;;;;41.59;22.94;101576.53;5079575;27;45475;-71
2022/07/24 09:05:18;;;;;;;;;10.00;10.00;;;;;41.92;21.19;101569.00;5080375;28;45350;-70
2022/07/24 09:07:43;;;;;;;;;10.67;10.67;;;;;42.21;20.93;101575.00;5080280;27;45462;-71
2022/07/24 09:10:12;;;;;;;;;13.33;11.67;;;;;42.30;21.90;101570.59;5080129;28;61496;-71
2022/07/24 09:12:45;;;;;;;;;14.33;10.00;;;;;42.20;19.97;101564.94;5079787;27;45390;-71
2022/07/24 09:15:15;;;;;;;;;10.33;10.33;;;;;42.13;20.66;101567.16;5079182;27;45413;-71
2022/07/24 09:17:52;;;;;;;;;13.00;10.67;;;;;41.45;20.90;101554.69;5078729;27;45497;-67
2022/07/24 09:20:17;;;;;;;;;10.67;10.67;;;;;41.16;20.89;101556.91;5079189;28;45450;-68
2022/07/24 09:22:43;;;;;;;;;8.33;8.33;;;;;41.23;20.58;101560.31;5080105;27;45966;-67
2022/07/24 09:25:17;;;;;;;;;9.00;7.33;;;;;41.62;20.69;101551.72;5080247;27;45197;-67
2022/07/24 09:27:51;;;;;;;;;8.00;8.00;;;;;41.92;20.00;101549.44;5080462;28;45530;-66
2022/07/24 09:30:28;;;;;;;;;12.00;12.00;;;;;42.31;19.72;101549.09;5080271;28;45446;-67
2022/07/24 09:32:57;;;;;;;;;7.33;6.00;;;;;42.31;18.10;101547.13;5079956;27;46247;-66
2022/07/24 09:35:29;;;;;;;;;6.67;6.67;;;;;42.40;18.67;101544.66;5079331;28;45542;-67
2022/07/24 09:37:56;;;;;;;;;6.00;6.00;;;;;42.44;18.15;101531.81;5080523;27;45314;-67
2022/07/24 09:40:28;;;;;;;;;7.00;7.00;;;;;42.90;18.75;101531.09;5080651;27;45145;-66
2022/07/24 09:43:02;;;;;;;;;6.00;6.00;;;;;43.25;18.84;101529.47;5080121;27;46260;-68
2022/07/24 09:45:28;;;;;;;;;8.00;8.00;;;;;43.57;17.53;101531.16;5078893;28;45345;-70
2022/07/24 09:47:54;;;;;;;;;5.67;5.67;;;;;43.51;18.17;101523.88;5080397;27;45433;-70
2022/07/24 09:50:22;;;;;;;;;8.67;8.67;;;;;43.55;17.60;101513.78;5079153;28;45419;-68
2022/07/24 09:52:47;;;;;;;;;8.00;8.00;;;;;43.37;17.83;101522.75;5079791;27;46311;-73
2022/07/24 09:55:24;;;;;;;;;7.67;7.67;;;;;43.25;17.96;101520.25;5079694;27;64351;-73
2022/07/24 09:57:50;;;;;;;;;6.33;6.33;;;;;43.66;17.16;101522.16;5080181;27;45417;-74
2022/07/24 10:00:16;;;;;;;;;9.67;9.00;;;;;44.02;17.08;101520.13;5080314;27;45342;-74
2022/07/24 10:02:43;;;;;;;;;9.00;9.00;;;;;43.84;17.19;101515.94;5079787;27;45397;-74
2022/07/24 10:05:10;;;;;;;;;7.67;7.67;;;;;43.25;16.56;101511.84;5080199;27;45445;-73
2022/07/24 10:07:37;;;;;;;;;4.67;4.67;;;;;43.13;16.97;101507.38;5078839;28;45345;-73
2022/07/24 10:10:02;;;;;;;;;8.67;8.67;;;;;43.42;17.47;101503.97;5080280;27;45308;-74
2022/07/24 10:12:30;;;;;;;;;6.67;6.67;;;;;43.96;17.16;101507.25;5080045;27;46712;-74
2022/07/24 10:14:57;;;;;;;;;5.33;5.33;;;;;44.17;16.70;101507.16;5079935;27;45331;-74
2022/07/24 10:17:32;;;;;;;;;6.00;6.00;;;;;44.55;15.17;101499.13;5080048;28;45493;-75
2022/07/24 10:20:03;;;;;;;;;7.00;7.00;;;;;44.63;15.72;101506.09;5080108;27;45298;-75
2022/07/24 10:22:39;;;;;;;;;5.67;5.67;;;;;44.41;15.51;101505.38;5079814;27;45511;-74
2022/07/24 10:25:06;;;;;;;;;8.00;8.00;;;;;44.62;16.25;101496.84;5078771;28;45465;-74
2022/07/24 10:27:34;;;;;;;;;3.00;3.00;;;;;45.05;16.00;101494.28;5080086;28;45480;-74
2022/07/24 10:30:08;;;;;;;;;6.00;6.00;;;;;45.26;15.17;101494.13;5079818;28;45419;-74
2022/07/24 10:32:35;;;;;;;;;5.00;5.00;;;;;45.66;15.22;101497.69;5079546;27;46284;-74
2022/07/24 10:35:27;;;;;;;;;4.33;4.33;;;;;45.68;15.29;101497.38;5079879;27;45262;-74
2022/07/24 10:38:08;;;;;;;;;6.00;6.00;;;;;45.25;14.18;101484.84;5078567;28;45397;-74
2022/07/24 10:40:34;;;;;;;;;5.67;5.67;;;;;45.07;14.22;101485.56;5079887;27;45481;-74
2022/07/24 10:43:05;;;;;;;;;4.00;4.00;;;;;44.84;15.34;101479.59;5079470;27;45377;-75
2022/07/24 10:45:32;;;;;;;;;6.33;6.33;;;;;44.86;15.45;101477.31;5079633;27;45236;-74
2022/07/24 10:47:58;;;;;;;;;6.33;6.33;;;;;45.00;15.34;101473.88;5079788;27;45259;-75
2022/07/24 10:53:25;;;;;;;;;5.33;4.33;;;;;45.36;15.03;101467.91;5079499;27;45390;-74
2022/07/24 10:55:51;;;;;;;;;4.00;4.00;;;;;45.48;13.98;101473.97;5079668;27;45456;-74
2022/07/24 10:58:17;;;;;;;;;7.00;7.00;;;;;45.46;14.09;101469.78;5078985;27;63237;-66
2022/07/24 11:00:47;;;;;;;;;8.00;6.33;;;;;45.13;13.91;101475.19;5079385;27;45630;-73
2022/07/24 11:03:22;;;;;;;;;6.67;5.33;;;;;44.60;13.99;101477.53;5079483;27;46324;-73
2022/07/24 11:06:04;;;;;;;;;3.33;3.33;;;;;44.31;14.09;101451.38;5082955;27;45421;-74
2022/07/24 11:08:30;;;;;;;;;5.33;5.33;;;;;44.44;14.94;101453.53;5082823;27;45535;-75
2022/07/24 11:11:05;;;;;;;;;1.00;1.00;;;;;44.48;14.10;101451.81;5083133;27;45465;-74